West Plains, MO

5:36 PM CDT on September 21, 2014 (GMT -0500)
Cedar Lane | Change Station
CLOSE
Current Station
Personal Weather Station
Location: West Plains, MO
Elevation: 1068 ft
Nearby Weather Stations

Elev 1068 ft 36.75 °N, 91.90 °W | Updated 0 second ago

Clear
Clear
70.7 °F
Feels Like 77 °F
N
3.0
Wind Variable Wind from West
Gusts 6.0 mph

Today
High -- | Low -- °F
--% Chance of Precip.
Yesterday
High -- | Low -- °F
Precip. -- in
6:54 AM 7:05 PM
Waning Crescent, 5% visible
Pressure 30.05 in
Visibility 10.0 miles
Clouds Clear
Heat Index 77 °F
Dew Point 46 °F
Humidity 42%
Rainfall 0.22 in
Snow Depth Not available.
UV 2 out of 12
Pollen 6.50 out of 12
Air Quality Not available.
Flu Activity Not available.
METAR KUNO 212153Z AUTO 32010KT 10SM CLR 26/08 A3008 RMK AO2 SLP174 T02610078

More Conditions Fewer Conditions

Pressure 30.05 in
Visibility 10.0 miles
Clouds Clear
Heat Index 77 °F
Dew Point 46 °F
Humidity 42%
Rainfall 0.22 in
Snow Depth Not available.
UV 2 out of 12
Pollen 6.50 out of 12
Air Quality Not available.
Flu Activity Not available.
METAR KUNO 212153Z AUTO 32010KT 10SM CLR 26/08 A3008 RMK AO2 SLP174 T02610078

More Conditions Fewer Conditions

10-Day Weather Forecast

Almanac

Astronomy

Sep. 21, 2014 Rise Set
Actual Time 6:54 AM CDT 7:05 PM CDT
Civil Twilight 6:28 AM CDT 7:31 PM CDT
Nautical Twilight 5:58 AM CDT 8:01 PM CDT
Astronomical Twilight 5:27 AM CDT 8:32 PM CDT
Moon 4:31 AM CDT 5:39 PM CDT
Length of Visible Light 13h 02m
Length of Day
12h 11m
Tomorrow will be 2m 19s shorter.
Waning Crescent, 5% of the Moon is Illuminated
Today
Waning Crescent
Sep 24
New
Oct 1
First Quarter
Oct 8
Full
Oct 15
Last Quarter

Today's Extremes

State Highs State Lows

Community

WunderPhotos

Upload Photos

1,755,280 photos uploaded!

WunderBlogs® & News

Nearby

Snow Depth

Station Depth Elevation
No new snow has been reported.

Earthquake Activity

City Distance Mag. Time & Date
No recent earthquake activity has been reported nearby.
Minimum magnitude displayed is 2.5.

Coastal Water Temperatures

Place Temperature
No Stations Reporting

Nearby Weather Stations